Página principal
METAR-TAF:

METAR-TAF

Aeroportos :

Funchal, Madeira, Portugal

Aeroporto da Madeira

latitude: 32-41-52N, longitude: 016-46-28W, altura: 59 m

Observação actual do tempo

O boletim foi feito há 43 minutos, às 06:00 UTC
Vento 9 kt de nor-nordeste, variando entre noroeste e nordeste
Temperatura 22°C
Humidade 65%
Pressão 1019 hPa
Visibilidade 10 km ou mais
Poucas nuvensa uma altura de 1500 ft

METAR: LPMA 120600Z 02009KT 310V050 9999 FEW015 22/15 Q1019

Hora: 07:43 (06:43 UTC)

Previsão

O boletim foi feito há 1 hora e 43 minutos, às 05:00 UTC
Previsão válida de 12 às 06 UTC a 13 às 06 UTC
Vento 13 kt de norte
Visibilidade 10 km ou mais
Nuvens dispersasa uma altura de 1500 ft

TAF: LPMA 120500Z 1206/1306 01013KT 9999 SCT015

Observações e previsões do tempo de mais de 4000 aeroportos (mensagens METAR e TAF).

As estações disponíveis são os pontos amarelos e vermelhos sobre o mapa.

Mova o rato sobre o mapa para ver o nome da estação.

Depois clique no ponto para visualizar as observações e previsões meteorológicas.

Para alterar o mapa : clique nos botões verdes com uma cruz preta para aumentar o zoom; no botão verde com uma pitada de zoom; ou nas setas verdes para mapas adjacentes.


METAR-TAF: